Аэропорт: Гянджа. Гянджа

ICAO: UBBG

METAR:
2021-07-28 12:30:00
UBBG 281230Z 09006KT 050V120 9999 SCT030CB BKN066 24/19 Q1012 R12/CLRD// NOSIG
METAR:
2021-07-28 11:00:00
TAF UBBG 281100Z 2812/2912 VRB04KT 9999 FEW040CB BKN080 TX25/2812Z TN20/2902Z TEMPO 2812/2815 -SHRA SCT030CB BKN060 TEMPO 2815/2820 VRB16KT -TSRA SCT030CB